sensor_id;sensor_type;location;lat;lon;timestamp;P1;durP1;ratioP1;P2;durP2;ratioP2
37164;SDS011;23057;48.554;14.454;2024-01-30T00:02:13;5.45;;;4.07;;
37164;SDS011;23057;48.554;14.454;2024-01-30T00:04:44;8.20;;;4.18;;
37164;SDS011;23057;48.554;14.454;2024-01-30T00:07:15;7.70;;;4.53;;
37164;SDS011;23057;48.554;14.454;2024-01-30T00:09:46;12.48;;;5.18;;
37164;SDS011;23057;48.554;14.454;2024-01-30T00:12:20;11.63;;;5.65;;
37164;SDS011;23057;48.554;14.454;2024-01-30T00:14:51;8.95;;;6.50;;
37164;SDS011;23057;48.554;14.454;2024-01-30T00:17:22;12.27;;;5.18;;
37164;SDS011;23057;48.554;14.454;2024-01-30T00:19:55;11.07;;;5.68;;
37164;SDS011;23057;48.554;14.454;2024-01-30T00:22:25;9.02;;;5.50;;
37164;SDS011;23057;48.554;14.454;2024-01-30T00:24:56;8.20;;;4.95;;
37164;SDS011;23057;48.554;14.454;2024-01-30T00:27:27;7.35;;;4.97;;
37164;SDS011;23057;48.554;14.454;2024-01-30T00:29:58;9.45;;;6.47;;
37164;SDS011;23057;48.554;14.454;2024-01-30T00:32:29;11.93;;;5.80;;
37164;SDS011;23057;48.554;14.454;2024-01-30T00:35:00;11.70;;;5.50;;
37164;SDS011;23057;48.554;14.454;2024-01-30T00:37:31;9.50;;;5.63;;
37164;SDS011;23057;48.554;14.454;2024-01-30T00:40:02;8.80;;;4.90;;
37164;SDS011;23057;48.554;14.454;2024-01-30T00:42:33;10.95;;;5.07;;
37164;SDS011;23057;48.554;14.454;2024-01-30T00:45:04;7.18;;;4.35;;
37164;SDS011;23057;48.554;14.454;2024-01-30T00:47:36;8.38;;;4.25;;
37164;SDS011;23057;48.554;14.454;2024-01-30T00:50:07;9.30;;;4.65;;
37164;SDS011;23057;48.554;14.454;2024-01-30T00:52:39;7.70;;;4.40;;
37164;SDS011;23057;48.554;14.454;2024-01-30T00:55:11;12.07;;;4.40;;
37164;SDS011;23057;48.554;14.454;2024-01-30T00:57:44;7.68;;;3.90;;
37164;SDS011;23057;48.554;14.454;2024-01-30T01:00:14;7.25;;;4.35;;
37164;SDS011;23057;48.554;14.454;2024-01-30T01:02:47;5.85;;;3.85;;
37164;SDS011;23057;48.554;14.454;2024-01-30T01:05:17;8.52;;;3.65;;
37164;SDS011;23057;48.554;14.454;2024-01-30T01:07:48;5.53;;;3.65;;
37164;SDS011;23057;48.554;14.454;2024-01-30T01:10:19;9.50;;;4.95;;
37164;SDS011;23057;48.554;14.454;2024-01-30T01:12:50;5.88;;;3.92;;
37164;SDS011;23057;48.554;14.454;2024-01-30T01:15:21;9.60;;;4.93;;
37164;SDS011;23057;48.554;14.454;2024-01-30T01:17:52;7.50;;;5.05;;
37164;SDS011;23057;48.554;14.454;2024-01-30T01:20:22;7.72;;;4.78;;
37164;SDS011;23057;48.554;14.454;2024-01-30T01:22:53;8.57;;;5.07;;
37164;SDS011;23057;48.554;14.454;2024-01-30T01:25:24;9.00;;;5.60;;
37164;SDS011;23057;48.554;14.454;2024-01-30T01:27:55;12.52;;;5.50;;
37164;SDS011;23057;48.554;14.454;2024-01-30T01:30:26;12.88;;;6.55;;
37164;SDS011;23057;48.554;14.454;2024-01-30T01:32:59;11.30;;;5.22;;
37164;SDS011;23057;48.554;14.454;2024-01-30T01:35:32;7.93;;;5.30;;
37164;SDS011;23057;48.554;14.454;2024-01-30T01:38:03;11.70;;;5.07;;
37164;SDS011;23057;48.554;14.454;2024-01-30T01:40:34;7.22;;;5.30;;
37164;SDS011;23057;48.554;14.454;2024-01-30T01:43:05;11.07;;;5.10;;
37164;SDS011;23057;48.554;14.454;2024-01-30T01:45:36;12.10;;;4.82;;
37164;SDS011;23057;48.554;14.454;2024-01-30T01:48:07;9.50;;;5.43;;
37164;SDS011;23057;48.554;14.454;2024-01-30T01:50:39;10.23;;;5.38;;
37164;SDS011;23057;48.554;14.454;2024-01-30T01:53:12;7.93;;;4.70;;
37164;SDS011;23057;48.554;14.454;2024-01-30T01:55:45;7.30;;;4.45;;
37164;SDS011;23057;48.554;14.454;2024-01-30T01:58:16;8.30;;;5.18;;
37164;SDS011;23057;48.554;14.454;2024-01-30T02:00:50;8.05;;;5.60;;
37164;SDS011;23057;48.554;14.454;2024-01-30T02:03:21;10.52;;;6.18;;
37164;SDS011;23057;48.554;14.454;2024-01-30T02:05:53;10.52;;;5.03;;
37164;SDS011;23057;48.554;14.454;2024-01-30T02:08:25;6.95;;;4.68;;
37164;SDS011;23057;48.554;14.454;2024-01-30T02:10:57;8.73;;;5.00;;
37164;SDS011;23057;48.554;14.454;2024-01-30T02:13:28;8.50;;;4.82;;
37164;SDS011;23057;48.554;14.454;2024-01-30T02:15:59;6.35;;;3.95;;
37164;SDS011;23057;48.554;14.454;2024-01-30T02:18:30;10.07;;;5.32;;
37164;SDS011;23057;48.554;14.454;2024-01-30T02:21:04;7.40;;;5.05;;
37164;SDS011;23057;48.554;14.454;2024-01-30T02:23:35;10.57;;;5.50;;
37164;SDS011;23057;48.554;14.454;2024-01-30T02:26:10;8.88;;;5.50;;
37164;SDS011;23057;48.554;14.454;2024-01-30T02:28:42;11.77;;;7.13;;
37164;SDS011;23057;48.554;14.454;2024-01-30T02:31:12;12.70;;;6.05;;
37164;SDS011;23057;48.554;14.454;2024-01-30T02:33:43;8.70;;;4.63;;
37164;SDS011;23057;48.554;14.454;2024-01-30T02:36:14;14.57;;;5.80;;
37164;SDS011;23057;48.554;14.454;2024-01-30T02:38:45;11.07;;;5.75;;
37164;SDS011;23057;48.554;14.454;2024-01-30T02:41:16;10.07;;;6.30;;
37164;SDS011;23057;48.554;14.454;2024-01-30T02:43:47;11.50;;;5.72;;
37164;SDS011;23057;48.554;14.454;2024-01-30T02:46:18;9.45;;;4.90;;
37164;SDS011;23057;48.554;14.454;2024-01-30T02:48:49;11.25;;;6.03;;
37164;SDS011;23057;48.554;14.454;2024-01-30T02:51:19;10.35;;;4.78;;
37164;SDS011;23057;48.554;14.454;2024-01-30T02:53:50;8.90;;;5.05;;
37164;SDS011;23057;48.554;14.454;2024-01-30T02:56:21;12.77;;;6.47;;
37164;SDS011;23057;48.554;14.454;2024-01-30T02:58:52;10.85;;;5.85;;
37164;SDS011;23057;48.554;14.454;2024-01-30T03:01:23;13.88;;;5.30;;
37164;SDS011;23057;48.554;14.454;2024-01-30T03:03:54;11.60;;;5.95;;
37164;SDS011;23057;48.554;14.454;2024-01-30T03:06:25;9.55;;;4.85;;
37164;SDS011;23057;48.554;14.454;2024-01-30T03:08:56;9.13;;;5.40;;
37164;SDS011;23057;48.554;14.454;2024-01-30T03:11:26;11.52;;;5.53;;
37164;SDS011;23057;48.554;14.454;2024-01-30T03:13:57;12.00;;;6.07;;
37164;SDS011;23057;48.554;14.454;2024-01-30T03:16:28;11.57;;;6.05;;
37164;SDS011;23057;48.554;14.454;2024-01-30T03:18:59;12.65;;;5.88;;
37164;SDS011;23057;48.554;14.454;2024-01-30T03:21:32;14.48;;;6.10;;
37164;SDS011;23057;48.554;14.454;2024-01-30T03:24:02;11.20;;;6.55;;
37164;SDS011;23057;48.554;14.454;2024-01-30T03:26:34;9.90;;;5.43;;
37164;SDS011;23057;48.554;14.454;2024-01-30T03:29:05;9.88;;;5.60;;
37164;SDS011;23057;48.554;14.454;2024-01-30T03:31:36;9.20;;;5.60;;
37164;SDS011;23057;48.554;14.454;2024-01-30T03:34:07;11.85;;;6.95;;
37164;SDS011;23057;48.554;14.454;2024-01-30T03:36:37;11.30;;;5.97;;
37164;SDS011;23057;48.554;14.454;2024-01-30T03:39:08;13.70;;;7.93;;
37164;SDS011;23057;48.554;14.454;2024-01-30T03:41:41;19.85;;;9.27;;
37164;SDS011;23057;48.554;14.454;2024-01-30T03:44:14;14.15;;;7.68;;
37164;SDS011;23057;48.554;14.454;2024-01-30T03:46:45;15.40;;;8.65;;
37164;SDS011;23057;48.554;14.454;2024-01-30T03:49:18;13.88;;;7.85;;
37164;SDS011;23057;48.554;14.454;2024-01-30T03:54:32;9.25;;;5.00;;
37164;SDS011;23057;48.554;14.454;2024-01-30T03:57:03;11.07;;;4.75;;
37164;SDS011;23057;48.554;14.454;2024-01-30T03:59:35;9.45;;;4.72;;
37164;SDS011;23057;48.554;14.454;2024-01-30T04:02:06;8.75;;;4.53;;
37164;SDS011;23057;48.554;14.454;2024-01-30T04:04:37;10.75;;;4.72;;
37164;SDS011;23057;48.554;14.454;2024-01-30T04:07:08;8.43;;;4.18;;
37164;SDS011;23057;48.554;14.454;2024-01-30T04:09:38;8.07;;;3.97;;
37164;SDS011;23057;48.554;14.454;2024-01-30T04:12:09;8.55;;;3.95;;
37164;SDS011;23057;48.554;14.454;2024-01-30T04:14:40;8.27;;;4.18;;
37164;SDS011;23057;48.554;14.454;2024-01-30T04:17:11;8.50;;;4.05;;
37164;SDS011;23057;48.554;14.454;2024-01-30T04:19:42;7.38;;;3.85;;
37164;SDS011;23057;48.554;14.454;2024-01-30T04:22:12;9.00;;;4.35;;
37164;SDS011;23057;48.554;14.454;2024-01-30T04:24:43;11.00;;;4.65;;
37164;SDS011;23057;48.554;14.454;2024-01-30T04:27:14;9.60;;;6.07;;
37164;SDS011;23057;48.554;14.454;2024-01-30T04:29:45;14.57;;;6.75;;
37164;SDS011;23057;48.554;14.454;2024-01-30T04:32:16;11.10;;;6.70;;
37164;SDS011;23057;48.554;14.454;2024-01-30T04:34:47;11.80;;;5.35;;
37164;SDS011;23057;48.554;14.454;2024-01-30T04:37:17;12.82;;;5.75;;
37164;SDS011;23057;48.554;14.454;2024-01-30T04:39:48;10.55;;;5.50;;
37164;SDS011;23057;48.554;14.454;2024-01-30T04:42:19;6.78;;;4.72;;
37164;SDS011;23057;48.554;14.454;2024-01-30T04:44:51;7.40;;;3.88;;
37164;SDS011;23057;48.554;14.454;2024-01-30T04:47:21;6.13;;;3.80;;
37164;SDS011;23057;48.554;14.454;2024-01-30T04:49:52;9.10;;;4.13;;
37164;SDS011;23057;48.554;14.454;2024-01-30T04:52:23;9.32;;;4.28;;
37164;SDS011;23057;48.554;14.454;2024-01-30T04:54:54;10.93;;;4.90;;
37164;SDS011;23057;48.554;14.454;2024-01-30T04:57:25;11.68;;;4.72;;
37164;SDS011;23057;48.554;14.454;2024-01-30T04:59:55;8.23;;;4.13;;
37164;SDS011;23057;48.554;14.454;2024-01-30T05:02:26;7.63;;;4.65;;
37164;SDS011;23057;48.554;14.454;2024-01-30T05:04:58;8.27;;;4.78;;
37164;SDS011;23057;48.554;14.454;2024-01-30T05:07:29;11.43;;;4.97;;
37164;SDS011;23057;48.554;14.454;2024-01-30T05:10:00;12.80;;;5.53;;
37164;SDS011;23057;48.554;14.454;2024-01-30T05:12:31;8.93;;;4.13;;
37164;SDS011;23057;48.554;14.454;2024-01-30T05:15:02;7.63;;;3.83;;
37164;SDS011;23057;48.554;14.454;2024-01-30T05:17:33;8.35;;;4.55;;
37164;SDS011;23057;48.554;14.454;2024-01-30T05:20:04;11.98;;;4.47;;
37164;SDS011;23057;48.554;14.454;2024-01-30T05:22:36;7.88;;;3.92;;
37164;SDS011;23057;48.554;14.454;2024-01-30T05:25:07;7.80;;;3.40;;
37164;SDS011;23057;48.554;14.454;2024-01-30T05:27:38;7.55;;;3.42;;
37164;SDS011;23057;48.554;14.454;2024-01-30T05:30:09;6.63;;;4.43;;
37164;SDS011;23057;48.554;14.454;2024-01-30T05:32:41;10.82;;;4.30;;
37164;SDS011;23057;48.554;14.454;2024-01-30T05:35:11;11.88;;;5.60;;
37164;SDS011;23057;48.554;14.454;2024-01-30T05:37:42;12.52;;;6.13;;
37164;SDS011;23057;48.554;14.454;2024-01-30T05:40:13;13.63;;;5.47;;
37164;SDS011;23057;48.554;14.454;2024-01-30T05:42:44;9.85;;;5.43;;
37164;SDS011;23057;48.554;14.454;2024-01-30T05:45:15;11.45;;;4.68;;
37164;SDS011;23057;48.554;14.454;2024-01-30T05:47:46;11.30;;;3.42;;
37164;SDS011;23057;48.554;14.454;2024-01-30T05:50:17;7.55;;;3.95;;
37164;SDS011;23057;48.554;14.454;2024-01-30T05:52:47;9.30;;;4.88;;
37164;SDS011;23057;48.554;14.454;2024-01-30T05:55:18;6.28;;;3.30;;
37164;SDS011;23057;48.554;14.454;2024-01-30T05:57:49;8.35;;;3.50;;
37164;SDS011;23057;48.554;14.454;2024-01-30T06:00:22;7.95;;;4.10;;
37164;SDS011;23057;48.554;14.454;2024-01-30T06:02:53;7.07;;;3.75;;
37164;SDS011;23057;48.554;14.454;2024-01-30T06:05:23;10.80;;;4.25;;
37164;SDS011;23057;48.554;14.454;2024-01-30T06:07:54;8.55;;;3.83;;
37164;SDS011;23057;48.554;14.454;2024-01-30T06:10:25;6.18;;;4.13;;
37164;SDS011;23057;48.554;14.454;2024-01-30T06:12:56;7.50;;;4.47;;
37164;SDS011;23057;48.554;14.454;2024-01-30T06:15:26;7.00;;;4.20;;
37164;SDS011;23057;48.554;14.454;2024-01-30T06:17:59;5.88;;;3.83;;
37164;SDS011;23057;48.554;14.454;2024-01-30T06:20:30;10.65;;;4.22;;
37164;SDS011;23057;48.554;14.454;2024-01-30T06:23:01;8.57;;;5.78;;
37164;SDS011;23057;48.554;14.454;2024-01-30T06:25:32;10.90;;;4.90;;
37164;SDS011;23057;48.554;14.454;2024-01-30T06:28:03;7.90;;;4.43;;
37164;SDS011;23057;48.554;14.454;2024-01-30T06:30:34;7.85;;;4.07;;
37164;SDS011;23057;48.554;14.454;2024-01-30T06:33:05;6.93;;;3.85;;
37164;SDS011;23057;48.554;14.454;2024-01-30T06:35:36;7.97;;;3.67;;
37164;SDS011;23057;48.554;14.454;2024-01-30T06:38:09;12.50;;;3.85;;
37164;SDS011;23057;48.554;14.454;2024-01-30T06:40:40;5.00;;;3.15;;
37164;SDS011;23057;48.554;14.454;2024-01-30T06:43:12;11.18;;;3.35;;
37164;SDS011;23057;48.554;14.454;2024-01-30T06:45:43;9.85;;;3.75;;
37164;SDS011;23057;48.554;14.454;2024-01-30T06:48:14;8.23;;;4.30;;
37164;SDS011;23057;48.554;14.454;2024-01-30T06:50:44;10.00;;;4.70;;
37164;SDS011;23057;48.554;14.454;2024-01-30T06:53:16;9.10;;;4.30;;
37164;SDS011;23057;48.554;14.454;2024-01-30T06:55:47;8.00;;;3.90;;
37164;SDS011;23057;48.554;14.454;2024-01-30T06:58:17;7.07;;;3.42;;
37164;SDS011;23057;48.554;14.454;2024-01-30T07:00:48;6.35;;;3.50;;
37164;SDS011;23057;48.554;14.454;2024-01-30T07:03:19;6.20;;;3.55;;
37164;SDS011;23057;48.554;14.454;2024-01-30T07:05:50;9.40;;;3.80;;
37164;SDS011;23057;48.554;14.454;2024-01-30T07:08:21;10.43;;;4.28;;
37164;SDS011;23057;48.554;14.454;2024-01-30T07:10:52;8.30;;;3.20;;
37164;SDS011;23057;48.554;14.454;2024-01-30T07:13:25;5.88;;;3.65;;
37164;SDS011;23057;48.554;14.454;2024-01-30T07:15:56;6.70;;;3.85;;
37164;SDS011;23057;48.554;14.454;2024-01-30T07:18:26;6.90;;;3.38;;
37164;SDS011;23057;48.554;14.454;2024-01-30T07:20:57;9.88;;;3.83;;
37164;SDS011;23057;48.554;14.454;2024-01-30T07:23:28;6.07;;;3.55;;
37164;SDS011;23057;48.554;14.454;2024-01-30T07:26:00;6.38;;;3.35;;
37164;SDS011;23057;48.554;14.454;2024-01-30T07:28:31;5.25;;;3.50;;
37164;SDS011;23057;48.554;14.454;2024-01-30T07:31:03;5.22;;;3.50;;
37164;SDS011;23057;48.554;14.454;2024-01-30T07:33:34;7.90;;;4.00;;
37164;SDS011;23057;48.554;14.454;2024-01-30T07:36:06;8.18;;;4.15;;
37164;SDS011;23057;48.554;14.454;2024-01-30T07:38:36;7.47;;;4.78;;
37164;SDS011;23057;48.554;14.454;2024-01-30T07:41:07;14.57;;;6.03;;
37164;SDS011;23057;48.554;14.454;2024-01-30T07:43:38;9.93;;;5.90;;
37164;SDS011;23057;48.554;14.454;2024-01-30T07:46:09;10.35;;;5.78;;
37164;SDS011;23057;48.554;14.454;2024-01-30T07:48:40;13.68;;;7.05;;
37164;SDS011;23057;48.554;14.454;2024-01-30T07:51:11;20.67;;;9.90;;
37164;SDS011;23057;48.554;14.454;2024-01-30T07:53:42;18.17;;;8.50;;
37164;SDS011;23057;48.554;14.454;2024-01-30T07:56:13;11.27;;;5.97;;
37164;SDS011;23057;48.554;14.454;2024-01-30T07:58:43;15.63;;;6.07;;
37164;SDS011;23057;48.554;14.454;2024-01-30T08:01:15;8.93;;;4.97;;
37164;SDS011;23057;48.554;14.454;2024-01-30T08:03:46;8.57;;;4.82;;
37164;SDS011;23057;48.554;14.454;2024-01-30T08:06:17;13.07;;;6.40;;
37164;SDS011;23057;48.554;14.454;2024-01-30T08:08:47;13.90;;;7.63;;
37164;SDS011;23057;48.554;14.454;2024-01-30T08:11:19;17.10;;;9.05;;
37164;SDS011;23057;48.554;14.454;2024-01-30T08:13:55;13.32;;;8.15;;
37164;SDS011;23057;48.554;14.454;2024-01-30T08:16:26;14.82;;;8.05;;
37164;SDS011;23057;48.554;14.454;2024-01-30T08:18:57;15.52;;;8.23;;
37164;SDS011;23057;48.554;14.454;2024-01-30T08:21:27;15.20;;;8.65;;
37164;SDS011;23057;48.554;14.454;2024-01-30T08:23:58;14.95;;;8.30;;
37164;SDS011;23057;48.554;14.454;2024-01-30T08:26:29;15.15;;;8.50;;
37164;SDS011;23057;48.554;14.454;2024-01-30T08:29:01;14.68;;;8.27;;
37164;SDS011;23057;48.554;14.454;2024-01-30T08:31:32;14.15;;;9.00;;
37164;SDS011;23057;48.554;14.454;2024-01-30T08:34:03;15.38;;;8.40;;
37164;SDS011;23057;48.554;14.454;2024-01-30T08:36:34;17.45;;;9.75;;
37164;SDS011;23057;48.554;14.454;2024-01-30T08:39:06;19.85;;;9.20;;
37164;SDS011;23057;48.554;14.454;2024-01-30T08:41:37;16.77;;;9.52;;
37164;SDS011;23057;48.554;14.454;2024-01-30T08:44:07;15.55;;;9.73;;
37164;SDS011;23057;48.554;14.454;2024-01-30T08:46:40;20.17;;;10.77;;
37164;SDS011;23057;48.554;14.454;2024-01-30T08:49:12;27.25;;;12.73;;
37164;SDS011;23057;48.554;14.454;2024-01-30T08:51:47;20.02;;;11.43;;
37164;SDS011;23057;48.554;14.454;2024-01-30T08:54:17;23.38;;;11.20;;
37164;SDS011;23057;48.554;14.454;2024-01-30T08:56:48;16.40;;;9.48;;
37164;SDS011;23057;48.554;14.454;2024-01-30T08:59:19;21.40;;;9.88;;
37164;SDS011;23057;48.554;14.454;2024-01-30T09:01:50;25.73;;;9.55;;
37164;SDS011;23057;48.554;14.454;2024-01-30T09:04:23;21.92;;;11.90;;
37164;SDS011;23057;48.554;14.454;2024-01-30T09:06:54;20.27;;;12.73;;
37164;SDS011;23057;48.554;14.454;2024-01-30T09:09:25;22.60;;;12.27;;
37164;SDS011;23057;48.554;14.454;2024-01-30T09:11:55;26.25;;;13.23;;
37164;SDS011;23057;48.554;14.454;2024-01-30T09:14:28;15.40;;;10.25;;
37164;SDS011;23057;48.554;14.454;2024-01-30T09:16:58;25.02;;;10.95;;
37164;SDS011;23057;48.554;14.454;2024-01-30T09:19:29;19.63;;;9.40;;
37164;SDS011;23057;48.554;14.454;2024-01-30T09:22:01;17.08;;;9.35;;
37164;SDS011;23057;48.554;14.454;2024-01-30T09:24:32;16.30;;;8.63;;
37164;SDS011;23057;48.554;14.454;2024-01-30T09:27:04;16.23;;;9.18;;
37164;SDS011;23057;48.554;14.454;2024-01-30T09:29:36;15.05;;;9.43;;
37164;SDS011;23057;48.554;14.454;2024-01-30T09:32:07;16.05;;;8.70;;
37164;SDS011;23057;48.554;14.454;2024-01-30T09:34:39;18.02;;;8.88;;
37164;SDS011;23057;48.554;14.454;2024-01-30T09:37:09;14.95;;;9.43;;
37164;SDS011;23057;48.554;14.454;2024-01-30T09:39:41;12.30;;;7.43;;
37164;SDS011;23057;48.554;14.454;2024-01-30T09:42:16;14.27;;;8.20;;
37164;SDS011;23057;48.554;14.454;2024-01-30T09:45:02;14.20;;;7.65;;
37164;SDS011;23057;48.554;14.454;2024-01-30T09:47:41;14.40;;;8.25;;
37164;SDS011;23057;48.554;14.454;2024-01-30T09:50:14;16.23;;;9.80;;
37164;SDS011;23057;48.554;14.454;2024-01-30T09:52:47;18.63;;;6.18;;
37164;SDS011;23057;48.554;14.454;2024-01-30T09:55:20;13.93;;;7.65;;
37164;SDS011;23057;48.554;14.454;2024-01-30T09:57:53;23.02;;;7.72;;
37164;SDS011;23057;48.554;14.454;2024-01-30T10:00:23;14.27;;;7.90;;
37164;SDS011;23057;48.554;14.454;2024-01-30T10:02:57;13.63;;;7.47;;
37164;SDS011;23057;48.554;14.454;2024-01-30T10:05:28;14.27;;;8.68;;
37164;SDS011;23057;48.554;14.454;2024-01-30T10:08:07;15.35;;;8.73;;
37164;SDS011;23057;48.554;14.454;2024-01-30T10:10:38;11.48;;;8.18;;
37164;SDS011;23057;48.554;14.454;2024-01-30T10:13:09;15.73;;;7.88;;
37164;SDS011;23057;48.554;14.454;2024-01-30T10:15:41;12.98;;;7.05;;
37164;SDS011;23057;48.554;14.454;2024-01-30T10:18:12;10.15;;;6.40;;
37164;SDS011;23057;48.554;14.454;2024-01-30T10:20:43;9.00;;;5.32;;
37164;SDS011;23057;48.554;14.454;2024-01-30T10:23:14;10.32;;;6.15;;
37164;SDS011;23057;48.554;14.454;2024-01-30T10:25:45;11.63;;;6.35;;
37164;SDS011;23057;48.554;14.454;2024-01-30T10:28:16;13.52;;;7.10;;
37164;SDS011;23057;48.554;14.454;2024-01-30T10:30:56;13.75;;;6.93;;
37164;SDS011;23057;48.554;14.454;2024-01-30T10:33:33;12.07;;;6.30;;
37164;SDS011;23057;48.554;14.454;2024-01-30T10:36:04;11.73;;;5.47;;
37164;SDS011;23057;48.554;14.454;2024-01-30T10:38:36;13.25;;;5.82;;
37164;SDS011;23057;48.554;14.454;2024-01-30T10:41:13;10.75;;;6.00;;
37164;SDS011;23057;48.554;14.454;2024-01-30T10:44:03;12.00;;;5.97;;
37164;SDS011;23057;48.554;14.454;2024-01-30T10:46:41;10.77;;;6.88;;
37164;SDS011;23057;48.554;14.454;2024-01-30T10:49:24;9.90;;;5.32;;
37164;SDS011;23057;48.554;14.454;2024-01-30T10:51:55;10.95;;;5.55;;
37164;SDS011;23057;48.554;14.454;2024-01-30T10:54:27;10.65;;;6.10;;
37164;SDS011;23057;48.554;14.454;2024-01-30T10:57:00;7.68;;;5.47;;
37164;SDS011;23057;48.554;14.454;2024-01-30T10:59:34;10.70;;;5.82;;
37164;SDS011;23057;48.554;14.454;2024-01-30T11:02:06;11.65;;;6.28;;
37164;SDS011;23057;48.554;14.454;2024-01-30T11:04:42;9.13;;;6.05;;
37164;SDS011;23057;48.554;14.454;2024-01-30T11:07:14;10.45;;;5.25;;
37164;SDS011;23057;48.554;14.454;2024-01-30T11:10:04;12.70;;;6.82;;
37164;SDS011;23057;48.554;14.454;2024-01-30T11:12:39;9.70;;;5.25;;
37164;SDS011;23057;48.554;14.454;2024-01-30T11:15:13;11.68;;;5.68;;
37164;SDS011;23057;48.554;14.454;2024-01-30T11:20:25;8.30;;;5.95;;
37164;SDS011;23057;48.554;14.454;2024-01-30T11:23:01;10.85;;;5.78;;
37164;SDS011;23057;48.554;14.454;2024-01-30T11:25:36;8.77;;;5.43;;
37164;SDS011;23057;48.554;14.454;2024-01-30T11:28:07;9.95;;;6.72;;
37164;SDS011;23057;48.554;14.454;2024-01-30T11:30:48;11.38;;;5.75;;
37164;SDS011;23057;48.554;14.454;2024-01-30T11:33:29;12.48;;;6.00;;
37164;SDS011;23057;48.554;14.454;2024-01-30T11:36:01;11.98;;;6.60;;
37164;SDS011;23057;48.554;14.454;2024-01-30T11:38:36;14.98;;;7.15;;
37164;SDS011;23057;48.554;14.454;2024-01-30T11:41:07;11.98;;;7.25;;
37164;SDS011;23057;48.554;14.454;2024-01-30T11:43:39;11.27;;;6.28;;
37164;SDS011;23057;48.554;14.454;2024-01-30T11:46:10;14.55;;;6.85;;
37164;SDS011;23057;48.554;14.454;2024-01-30T11:48:41;13.68;;;6.20;;
37164;SDS011;23057;48.554;14.454;2024-01-30T11:51:12;9.60;;;5.75;;
37164;SDS011;23057;48.554;14.454;2024-01-30T11:53:44;11.88;;;6.45;;
37164;SDS011;23057;48.554;14.454;2024-01-30T11:56:19;10.27;;;6.13;;
37164;SDS011;23057;48.554;14.454;2024-01-30T11:58:50;11.75;;;6.97;;
37164;SDS011;23057;48.554;14.454;2024-01-30T12:01:22;15.20;;;7.53;;
37164;SDS011;23057;48.554;14.454;2024-01-30T12:03:53;12.35;;;6.80;;
37164;SDS011;23057;48.554;14.454;2024-01-30T12:06:24;13.18;;;7.30;;
37164;SDS011;23057;48.554;14.454;2024-01-30T12:08:58;16.23;;;8.18;;
37164;SDS011;23057;48.554;14.454;2024-01-30T12:11:43;14.52;;;7.35;;
37164;SDS011;23057;48.554;14.454;2024-01-30T12:14:18;13.90;;;7.20;;
37164;SDS011;23057;48.554;14.454;2024-01-30T12:16:50;16.00;;;7.65;;
37164;SDS011;23057;48.554;14.454;2024-01-30T12:19:22;19.63;;;8.15;;
37164;SDS011;23057;48.554;14.454;2024-01-30T12:21:55;14.13;;;7.57;;
37164;SDS011;23057;48.554;14.454;2024-01-30T12:24:28;14.30;;;7.20;;
37164;SDS011;23057;48.554;14.454;2024-01-30T12:27:03;14.82;;;7.28;;
37164;SDS011;23057;48.554;14.454;2024-01-30T12:29:34;15.90;;;7.82;;
37164;SDS011;23057;48.554;14.454;2024-01-30T12:32:05;14.02;;;8.52;;
37164;SDS011;23057;48.554;14.454;2024-01-30T12:34:40;17.58;;;7.57;;
37164;SDS011;23057;48.554;14.454;2024-01-30T12:37:12;14.48;;;8.55;;
37164;SDS011;23057;48.554;14.454;2024-01-30T12:39:43;17.13;;;8.85;;
37164;SDS011;23057;48.554;14.454;2024-01-30T12:42:14;21.25;;;9.43;;
37164;SDS011;23057;48.554;14.454;2024-01-30T12:44:45;17.52;;;8.70;;
37164;SDS011;23057;48.554;14.454;2024-01-30T12:47:16;12.80;;;6.65;;
37164;SDS011;23057;48.554;14.454;2024-01-30T12:49:47;16.95;;;8.20;;
37164;SDS011;23057;48.554;14.454;2024-01-30T12:52:18;17.33;;;8.35;;
37164;SDS011;23057;48.554;14.454;2024-01-30T12:54:54;16.75;;;8.30;;
37164;SDS011;23057;48.554;14.454;2024-01-30T12:57:25;14.30;;;7.72;;
37164;SDS011;23057;48.554;14.454;2024-01-30T12:59:56;14.85;;;7.70;;
37164;SDS011;23057;48.554;14.454;2024-01-30T13:02:26;14.68;;;8.80;;
37164;SDS011;23057;48.554;14.454;2024-01-30T13:05:04;17.17;;;8.77;;
37164;SDS011;23057;48.554;14.454;2024-01-30T13:07:36;15.88;;;8.63;;
37164;SDS011;23057;48.554;14.454;2024-01-30T13:10:06;18.02;;;9.85;;
37164;SDS011;23057;48.554;14.454;2024-01-30T13:12:38;15.65;;;8.95;;
37164;SDS011;23057;48.554;14.454;2024-01-30T13:15:09;17.92;;;8.77;;
37164;SDS011;23057;48.554;14.454;2024-01-30T13:17:41;16.08;;;8.30;;
37164;SDS011;23057;48.554;14.454;2024-01-30T13:20:13;21.60;;;10.40;;
37164;SDS011;23057;48.554;14.454;2024-01-30T13:22:49;17.15;;;8.93;;
37164;SDS011;23057;48.554;14.454;2024-01-30T13:25:20;17.15;;;7.95;;
37164;SDS011;23057;48.554;14.454;2024-01-30T13:27:51;14.05;;;8.43;;
37164;SDS011;23057;48.554;14.454;2024-01-30T13:30:22;16.15;;;8.30;;
37164;SDS011;23057;48.554;14.454;2024-01-30T13:32:53;18.42;;;9.10;;
37164;SDS011;23057;48.554;14.454;2024-01-30T13:35:24;17.10;;;9.30;;
37164;SDS011;23057;48.554;14.454;2024-01-30T13:37:54;24.60;;;10.68;;
37164;SDS011;23057;48.554;14.454;2024-01-30T13:40:25;15.48;;;9.15;;
37164;SDS011;23057;48.554;14.454;2024-01-30T13:42:56;24.58;;;12.75;;
37164;SDS011;23057;48.554;14.454;2024-01-30T13:45:27;25.25;;;12.63;;
37164;SDS011;23057;48.554;14.454;2024-01-30T13:47:58;22.70;;;11.50;;
37164;SDS011;23057;48.554;14.454;2024-01-30T13:50:29;25.25;;;14.45;;
37164;SDS011;23057;48.554;14.454;2024-01-30T13:53:00;23.38;;;13.75;;
37164;SDS011;23057;48.554;14.454;2024-01-30T13:55:34;25.10;;;15.10;;
37164;SDS011;23057;48.554;14.454;2024-01-30T13:58:05;30.35;;;16.60;;
37164;SDS011;23057;48.554;14.454;2024-01-30T14:00:37;32.55;;;17.90;;
37164;SDS011;23057;48.554;14.454;2024-01-30T14:03:08;30.67;;;18.10;;
37164;SDS011;23057;48.554;14.454;2024-01-30T14:05:39;27.00;;;16.95;;
37164;SDS011;23057;48.554;14.454;2024-01-30T14:08:10;30.77;;;18.52;;
37164;SDS011;23057;48.554;14.454;2024-01-30T14:10:41;27.08;;;15.55;;
37164;SDS011;23057;48.554;14.454;2024-01-30T14:13:12;23.80;;;13.82;;
37164;SDS011;23057;48.554;14.454;2024-01-30T14:15:43;27.05;;;13.57;;
37164;SDS011;23057;48.554;14.454;2024-01-30T14:18:14;25.27;;;14.00;;
37164;SDS011;23057;48.554;14.454;2024-01-30T14:20:45;23.98;;;13.50;;
37164;SDS011;23057;48.554;14.454;2024-01-30T14:23:17;24.90;;;14.57;;
37164;SDS011;23057;48.554;14.454;2024-01-30T14:25:48;24.45;;;13.35;;
37164;SDS011;23057;48.554;14.454;2024-01-30T14:28:21;24.67;;;12.88;;
37164;SDS011;23057;48.554;14.454;2024-01-30T14:30:52;25.20;;;14.10;;
37164;SDS011;23057;48.554;14.454;2024-01-30T14:33:23;21.38;;;12.40;;
37164;SDS011;23057;48.554;14.454;2024-01-30T14:35:54;19.30;;;11.85;;
37164;SDS011;23057;48.554;14.454;2024-01-30T14:38:24;16.60;;;9.82;;
37164;SDS011;23057;48.554;14.454;2024-01-30T14:40:55;15.25;;;9.63;;
37164;SDS011;23057;48.554;14.454;2024-01-30T14:43:26;13.55;;;7.65;;
37164;SDS011;23057;48.554;14.454;2024-01-30T14:45:57;13.77;;;7.22;;
37164;SDS011;23057;48.554;14.454;2024-01-30T14:48:28;14.13;;;7.97;;
37164;SDS011;23057;48.554;14.454;2024-01-30T14:50:58;14.35;;;6.93;;
37164;SDS011;23057;48.554;14.454;2024-01-30T14:53:29;10.13;;;7.22;;
37164;SDS011;23057;48.554;14.454;2024-01-30T14:56:00;9.38;;;6.30;;
37164;SDS011;23057;48.554;14.454;2024-01-30T14:58:32;10.27;;;6.13;;